createdAt,value
2018-02-11T00:00:37.816Z,2.56
2018-02-11T00:03:05.229Z,2.75
2018-02-11T00:05:32.634Z,2.70
2018-02-11T00:08:00.048Z,2.87
2018-02-11T00:10:27.499Z,2.81
2018-02-11T00:12:54.921Z,2.71
2018-02-11T00:15:22.360Z,2.74
2018-02-11T00:17:49.799Z,2.62
2018-02-11T00:20:17.269Z,2.43
2018-02-11T00:22:44.685Z,2.39
2018-02-11T00:25:12.087Z,2.33
2018-02-11T00:27:39.516Z,2.48
2018-02-11T00:30:06.938Z,2.52
2018-02-11T00:32:34.879Z,2.47
2018-02-11T00:35:02.302Z,2.52
2018-02-11T00:37:35.205Z,2.34
2018-02-11T00:40:02.634Z,2.39
2018-02-11T00:42:30.066Z,2.43
2018-02-11T00:44:57.480Z,2.39
2018-02-11T00:47:24.902Z,2.38
2018-02-11T00:49:52.331Z,2.35
2018-02-11T00:52:19.736Z,2.38
2018-02-11T00:54:47.162Z,2.40
2018-02-11T00:57:14.602Z,2.53
2018-02-11T00:59:42.012Z,2.49
2018-02-11T01:02:09.429Z,2.36
2018-02-11T01:04:36.865Z,2.55
2018-02-11T01:07:04.301Z,2.38
2018-02-11T01:09:31.745Z,2.50
2018-02-11T01:11:59.161Z,2.47
2018-02-11T01:14:26.589Z,2.47
2018-02-11T01:16:53.984Z,2.47
2018-02-11T01:19:21.406Z,2.41
2018-02-11T01:21:48.826Z,2.33
2018-02-11T01:24:16.315Z,2.30
2018-02-11T01:26:43.748Z,2.38
2018-02-11T01:29:11.156Z,2.15
2018-02-11T01:31:38.571Z,2.19
2018-02-11T01:34:05.988Z,2.31
2018-02-11T01:36:33.394Z,2.26
2018-02-11T01:39:00.808Z,2.15
2018-02-11T01:41:28.213Z,2.15
2018-02-11T01:43:55.678Z,2.05
2018-02-11T01:46:23.112Z,2.04
2018-02-11T01:48:50.522Z,2.05
2018-02-11T01:51:17.965Z,1.84
2018-02-11T01:53:45.401Z,1.76
2018-02-11T01:56:12.814Z,1.69
2018-02-11T01:58:40.228Z,1.71
2018-02-11T02:01:08.391Z,1.96
2018-02-11T02:03:35.811Z,1.87
2018-02-11T02:06:03.233Z,1.79
2018-02-11T02:08:30.651Z,1.90
2018-02-11T02:10:58.089Z,1.86
2018-02-11T02:13:25.510Z,1.95
2018-02-11T02:15:52.934Z,1.91
2018-02-11T02:18:20.333Z,1.93
2018-02-11T02:20:47.745Z,1.84
2018-02-11T02:23:15.165Z,1.84
2018-02-11T02:25:42.597Z,1.79
2018-02-11T02:28:10.001Z,1.89
2018-02-11T02:30:37.415Z,1.69
2018-02-11T02:33:04.836Z,1.54
2018-02-11T02:35:32.255Z,1.58
2018-02-11T02:37:59.698Z,1.56
2018-02-11T02:40:27.142Z,1.47
2018-02-11T02:42:54.551Z,1.48
2018-02-11T02:45:21.970Z,1.49
2018-02-11T02:47:49.385Z,1.45
2018-02-11T02:50:16.805Z,1.41
2018-02-11T02:52:44.266Z,1.48
2018-02-11T02:55:11.766Z,1.45
2018-02-11T02:57:39.176Z,1.42
2018-02-11T03:00:06.589Z,1.22
2018-02-11T03:02:34.058Z,1.15
2018-02-11T03:05:01.475Z,1.22
2018-02-11T03:07:28.863Z,1.25
2018-02-11T03:09:56.273Z,1.25
2018-02-11T03:12:23.705Z,1.35
2018-02-11T03:14:51.203Z,1.21
2018-02-11T03:17:18.631Z,1.33
2018-02-11T03:19:46.097Z,1.28
2018-02-11T03:22:13.518Z,1.45
2018-02-11T03:24:40.926Z,1.68
2018-02-11T03:27:08.454Z,1.57
2018-02-11T03:29:35.849Z,1.72
2018-02-11T03:32:03.259Z,1.63
2018-02-11T03:34:30.658Z,1.63
2018-02-11T03:36:58.079Z,1.62
2018-02-11T03:39:25.560Z,1.67
2018-02-11T03:41:53.021Z,1.74
2018-02-11T03:44:20.461Z,1.78
2018-02-11T03:46:47.878Z,1.76
2018-02-11T03:49:15.325Z,1.79
2018-02-11T03:51:43.368Z,1.72
2018-02-11T03:54:10.804Z,1.65
2018-02-11T03:56:38.217Z,1.69
2018-02-11T03:59:05.632Z,1.66
2018-02-11T04:01:33.040Z,1.58
2018-02-11T04:04:00.436Z,1.56
2018-02-11T04:06:27.878Z,1.65
2018-02-11T04:08:55.294Z,1.81
2018-02-11T04:11:22.690Z,1.83
2018-02-11T04:13:50.144Z,1.90
2018-02-11T04:16:17.557Z,2.06
2018-02-11T04:18:44.977Z,2.02
2018-02-11T04:21:12.397Z,2.03
2018-02-11T04:23:39.798Z,1.84
2018-02-11T04:26:07.202Z,1.93
2018-02-11T04:28:34.616Z,1.98
2018-02-11T04:31:02.021Z,2.05
2018-02-11T04:33:29.548Z,1.92
2018-02-11T04:35:56.942Z,2.03
2018-02-11T04:38:24.376Z,2.14
2018-02-11T04:40:51.783Z,2.15
2018-02-11T04:43:19.180Z,2.26
2018-02-11T04:45:46.611Z,2.24
2018-02-11T04:48:14.109Z,2.38
2018-02-11T04:50:41.508Z,2.25
2018-02-11T04:53:08.917Z,2.35
2018-02-11T04:55:36.347Z,2.27
2018-02-11T04:58:03.765Z,2.15
2018-02-11T05:00:31.174Z,2.05
2018-02-11T05:02:58.591Z,2.14
2018-02-11T05:05:25.976Z,2.06
2018-02-11T05:07:53.381Z,2.22
2018-02-11T05:10:20.798Z,2.18
2018-02-11T05:12:48.212Z,2.23
2018-02-11T05:15:15.635Z,2.32
2018-02-11T05:17:43.113Z,2.40
2018-02-11T05:20:10.549Z,2.30
2018-02-11T05:22:38.033Z,2.36
2018-02-11T05:25:05.493Z,2.40
2018-02-11T05:27:32.889Z,2.36
2018-02-11T05:30:00.302Z,2.39
2018-02-11T05:32:27.777Z,2.42
2018-02-11T05:34:55.221Z,2.49
2018-02-11T05:37:22.685Z,2.41
2018-02-11T05:39:50.125Z,2.44
2018-02-11T05:42:18.414Z,2.42
2018-02-11T05:44:45.850Z,2.47
2018-02-11T05:47:13.297Z,2.42
2018-02-11T05:49:40.763Z,2.45
2018-02-11T05:52:08.177Z,2.50
2018-02-11T05:54:35.593Z,2.52
2018-02-11T05:57:02.995Z,2.52
2018-02-11T05:59:30.406Z,2.53
2018-02-11T06:01:57.826Z,2.47
2018-02-11T06:04:25.235Z,2.49
2018-02-11T06:06:52.634Z,2.44
2018-02-11T06:09:20.032Z,2.44
2018-02-11T06:11:47.546Z,2.65
2018-02-11T06:14:14.945Z,2.61
2018-02-11T06:16:42.439Z,2.56
2018-02-11T06:19:09.840Z,2.58
2018-02-11T06:21:37.285Z,2.54
2018-02-11T06:24:04.707Z,2.48
2018-02-11T06:26:32.151Z,2.50
2018-02-11T06:28:59.579Z,2.63
2018-02-11T06:31:26.997Z,2.56
2018-02-11T06:33:54.429Z,2.51
2018-02-11T06:36:21.838Z,2.51
2018-02-11T06:38:49.254Z,2.43
2018-02-11T06:41:16.699Z,2.47
2018-02-11T06:43:44.153Z,2.55
2018-02-11T06:46:11.577Z,2.50
2018-02-11T06:48:38.997Z,2.55
2018-02-11T06:51:06.437Z,2.53
2018-02-11T06:53:33.847Z,2.64
2018-02-11T06:56:01.270Z,2.57
2018-02-11T06:58:28.681Z,2.41
2018-02-11T07:00:56.176Z,2.47
2018-02-11T07:03:23.589Z,2.62
2018-02-11T07:05:51.006Z,2.65
2018-02-11T07:08:18.406Z,2.48
2018-02-11T07:10:45.827Z,2.65
2018-02-11T07:13:13.242Z,2.70
2018-02-11T07:15:40.724Z,2.75
2018-02-11T07:18:08.126Z,2.72
2018-02-11T07:20:35.560Z,2.76
2018-02-11T07:23:02.956Z,2.66
2018-02-11T07:25:30.374Z,2.61
2018-02-11T07:27:57.775Z,2.78
2018-02-11T07:30:25.180Z,2.88
2018-02-11T07:32:53.085Z,2.94
2018-02-11T07:35:20.506Z,2.99
2018-02-11T07:37:47.969Z,3.09
2018-02-11T07:40:15.430Z,3.22
2018-02-11T07:42:43.080Z,3.05
2018-02-11T07:45:10.562Z,3.20
2018-02-11T07:47:37.989Z,3.29
2018-02-11T07:50:05.425Z,3.45
2018-02-11T07:52:32.836Z,3.53
2018-02-11T07:55:00.301Z,3.73
2018-02-11T07:57:27.725Z,3.67
2018-02-11T07:59:55.156Z,3.49
2018-02-11T08:02:22.625Z,3.47
2018-02-11T08:04:50.078Z,3.54
2018-02-11T08:07:17.502Z,3.63
2018-02-11T08:09:44.917Z,3.69
2018-02-11T08:12:12.453Z,3.76
2018-02-11T08:14:39.904Z,3.66
2018-02-11T08:17:07.317Z,3.65
2018-02-11T08:19:34.742Z,3.69
2018-02-11T08:22:02.154Z,3.66
2018-02-11T08:24:29.600Z,3.71
2018-02-11T08:26:57.014Z,3.65
2018-02-11T08:29:24.428Z,3.64
2018-02-11T08:31:51.866Z,3.76
2018-02-11T08:34:19.373Z,3.82
2018-02-11T08:36:46.783Z,3.69
2018-02-11T08:39:14.181Z,3.75
2018-02-11T08:41:41.598Z,3.64
2018-02-11T08:44:09.032Z,3.61
2018-02-11T08:46:36.460Z,3.61
2018-02-11T08:49:03.864Z,3.54
2018-02-11T08:51:31.266Z,3.62
2018-02-11T08:53:58.677Z,3.80
2018-02-11T08:56:26.165Z,3.78
2018-02-11T08:58:53.566Z,3.81
2018-02-11T09:01:21.002Z,3.83
2018-02-11T09:03:48.437Z,3.71
2018-02-11T09:06:15.849Z,3.64
2018-02-11T09:08:43.277Z,3.69
2018-02-11T09:11:10.685Z,3.78
2018-02-11T09:13:38.129Z,3.70
2018-02-11T09:16:05.535Z,3.79
2018-02-11T09:18:32.941Z,3.86
2018-02-11T09:21:00.350Z,3.95
2018-02-11T09:23:27.773Z,4.01
2018-02-11T09:25:55.581Z,4.20
2018-02-11T09:28:22.997Z,4.30
2018-02-11T09:30:50.409Z,4.33
2018-02-11T09:33:17.814Z,4.38
2018-02-11T09:35:45.251Z,4.28
2018-02-11T09:38:12.664Z,4.33
2018-02-11T09:40:40.211Z,4.44
2018-02-11T09:43:07.606Z,4.61
2018-02-11T09:45:35.021Z,4.77
2018-02-11T09:48:02.505Z,5.08
2018-02-11T09:50:29.913Z,5.02
2018-02-11T09:52:57.336Z,5.21
2018-02-11T09:55:24.758Z,5.09
2018-02-11T09:57:52.218Z,5.03
2018-02-11T10:00:19.655Z,5.33
2018-02-11T10:02:47.085Z,5.52
2018-02-11T10:05:14.492Z,5.54
2018-02-11T10:07:41.922Z,5.87
2018-02-11T10:10:09.342Z,5.88
2018-02-11T10:12:36.747Z,6.07
2018-02-11T10:15:04.174Z,6.28
2018-02-11T10:17:31.584Z,6.21
2018-02-11T10:19:59.005Z,6.26
2018-02-11T10:22:26.787Z,6.42
2018-02-11T10:24:54.194Z,6.50
2018-02-11T10:27:21.605Z,6.70
2018-02-11T10:29:49.059Z,6.65
2018-02-11T10:32:16.509Z,6.63
2018-02-11T10:34:43.921Z,6.61
2018-02-11T10:37:11.410Z,6.06
2018-02-11T10:39:38.816Z,5.73
2018-02-11T10:42:06.233Z,5.91
2018-02-11T10:44:33.654Z,5.93
2018-02-11T10:47:01.053Z,5.78
2018-02-11T10:49:28.473Z,5.78
2018-02-11T10:51:55.888Z,5.93
2018-02-11T10:54:23.410Z,5.89
2018-02-11T10:56:50.785Z,5.62
2018-02-11T10:59:18.198Z,5.58
2018-02-11T11:01:45.671Z,5.67
2018-02-11T11:04:13.102Z,5.71
2018-02-11T11:06:40.565Z,5.77
2018-02-11T11:09:07.981Z,5.80
2018-02-11T11:11:35.393Z,5.86
2018-02-11T11:14:02.833Z,5.60
2018-02-11T11:16:30.242Z,5.65
2018-02-11T11:18:58.140Z,5.54
2018-02-11T11:21:26.077Z,5.43
2018-02-11T11:23:53.516Z,5.65
2018-02-11T11:26:20.928Z,5.51
2018-02-11T11:28:48.324Z,5.28
2018-02-11T11:31:15.736Z,5.29
2018-02-11T11:33:43.150Z,5.29
2018-02-11T11:36:11.425Z,5.07
2018-02-11T11:38:38.825Z,5.11
2018-02-11T11:41:06.237Z,5.08
2018-02-11T11:43:33.649Z,5.38
2018-02-11T11:46:01.049Z,5.71
2018-02-11T11:48:28.959Z,5.80
2018-02-11T11:50:56.359Z,5.89
2018-02-11T11:53:23.765Z,5.98
2018-02-11T11:55:51.178Z,5.94
2018-02-11T11:58:18.598Z,5.83
2018-02-11T12:00:46.014Z,5.97
2018-02-11T12:03:13.406Z,6.08
2018-02-11T12:05:40.876Z,5.94
2018-02-11T12:08:08.272Z,5.85
2018-02-11T12:10:35.678Z,5.91
2018-02-11T12:13:03.148Z,5.90
2018-02-11T12:15:30.642Z,5.78
2018-02-11T12:17:58.055Z,5.79
2018-02-11T12:20:25.465Z,5.87
2018-02-11T12:22:52.888Z,5.82
2018-02-11T12:25:20.344Z,6.08
2018-02-11T12:27:47.762Z,6.15
2018-02-11T12:30:15.200Z,6.05
2018-02-11T12:32:42.585Z,6.05
2018-02-11T12:35:09.987Z,6.09
2018-02-11T12:37:37.436Z,6.01
2018-02-11T12:40:04.855Z,6.27
2018-02-11T12:42:32.273Z,6.40
2018-02-11T12:45:00.608Z,6.47
2018-02-11T12:47:28.031Z,6.59
2018-02-11T12:49:55.522Z,6.69
2018-02-11T12:52:22.970Z,6.80
2018-02-11T12:54:50.462Z,6.96
2018-02-11T12:57:17.873Z,6.84
2018-02-11T12:59:45.318Z,6.68
2018-02-11T13:02:12.739Z,6.66
2018-02-11T13:04:40.170Z,6.79
2018-02-11T13:07:07.586Z,6.98
2018-02-11T13:09:34.989Z,6.85
2018-02-11T13:12:02.491Z,6.88
2018-02-11T13:14:29.904Z,6.92
2018-02-11T13:16:57.326Z,7.01
2018-02-11T13:19:24.742Z,7.09
2018-02-11T13:21:52.136Z,6.98
2018-02-11T13:24:19.555Z,6.93
2018-02-11T13:26:47.018Z,6.50
2018-02-11T13:29:14.462Z,6.47
2018-02-11T13:31:41.862Z,6.44
2018-02-11T13:34:09.287Z,6.44
2018-02-11T13:36:36.757Z,6.31
2018-02-11T13:39:04.166Z,6.33
2018-02-11T13:41:32.285Z,6.25
2018-02-11T13:43:59.724Z,6.21
2018-02-11T13:46:27.129Z,6.12
2018-02-11T13:48:54.543Z,6.12
2018-02-11T13:51:21.951Z,6.05
2018-02-11T13:53:49.389Z,6.02
2018-02-11T13:56:16.793Z,6.06
2018-02-11T13:58:44.210Z,6.03
2018-02-11T14:01:11.618Z,6.15
2018-02-11T14:03:39.053Z,6.35
2018-02-11T14:06:06.469Z,6.40
2018-02-11T14:08:33.873Z,6.45
2018-02-11T14:11:01.280Z,6.52
2018-02-11T14:13:28.686Z,6.63
2018-02-11T14:15:56.086Z,6.61
2018-02-11T14:18:23.510Z,6.66
2018-02-11T14:20:50.949Z,6.81
2018-02-11T14:23:18.357Z,6.78
2018-02-11T14:25:46.600Z,6.69
2018-02-11T14:28:14.046Z,6.69
2018-02-11T14:30:41.446Z,6.55
2018-02-11T14:33:08.891Z,6.40
2018-02-11T14:35:36.298Z,6.41
2018-02-11T14:38:04.269Z,6.38
2018-02-11T14:40:31.685Z,6.37
2018-02-11T14:42:59.165Z,6.28
2018-02-11T14:45:26.602Z,6.17
2018-02-11T14:47:54.008Z,6.17
2018-02-11T14:50:21.414Z,6.16
2018-02-11T14:52:48.815Z,6.05
2018-02-11T14:55:16.228Z,6.18
2018-02-11T14:57:43.698Z,6.14
2018-02-11T15:00:11.115Z,6.25
2018-02-11T15:02:38.508Z,6.34
2018-02-11T15:05:05.942Z,6.27
2018-02-11T15:07:33.337Z,6.43
2018-02-11T15:10:00.749Z,6.43
2018-02-11T15:12:28.152Z,6.25
2018-02-11T15:14:55.600Z,6.05
2018-02-11T15:17:22.996Z,6.03
2018-02-11T15:19:50.465Z,5.98
2018-02-11T15:22:17.859Z,6.02
2018-02-11T15:24:45.276Z,6.14
2018-02-11T15:27:12.696Z,6.11
2018-02-11T15:29:40.110Z,6.14
2018-02-11T15:32:07.522Z,6.08
2018-02-11T15:34:34.928Z,6.24
2018-02-11T15:37:02.352Z,6.35
2018-02-11T15:39:29.752Z,6.36
2018-02-11T15:41:57.156Z,6.24
2018-02-11T15:44:24.574Z,6.06
2018-02-11T15:46:52.009Z,6.04
2018-02-11T15:49:19.465Z,5.95
2018-02-11T15:51:46.873Z,6.00
2018-02-11T15:54:14.283Z,5.91
2018-02-11T15:56:41.771Z,5.95
2018-02-11T15:59:09.182Z,5.78
2018-02-11T16:01:37.338Z,5.73
2018-02-11T16:04:04.834Z,5.74
2018-02-11T16:06:32.321Z,5.76
2018-02-11T16:08:59.724Z,5.78
2018-02-11T16:11:27.130Z,5.64
2018-02-11T16:13:54.549Z,5.68
2018-02-11T16:16:21.990Z,5.67
2018-02-11T16:18:49.496Z,5.64
2018-02-11T16:21:16.930Z,5.54
2018-02-11T16:23:44.364Z,5.40
2018-02-11T16:26:11.762Z,5.38
2018-02-11T16:28:39.190Z,5.28
2018-02-11T16:31:06.665Z,5.27
2018-02-11T16:33:34.117Z,5.16
2018-02-11T16:36:01.585Z,5.18
2018-02-11T16:38:28.994Z,5.11
2018-02-11T16:40:56.391Z,5.08
2018-02-11T16:43:23.814Z,5.11
2018-02-11T16:45:51.297Z,5.01
2018-02-11T16:48:18.718Z,4.92
2018-02-11T16:50:46.126Z,5.06
2018-02-11T16:53:13.532Z,4.98
2018-02-11T16:55:40.959Z,5.08
2018-02-11T16:58:08.405Z,5.04
2018-02-11T17:00:35.823Z,4.98
2018-02-11T17:03:03.233Z,4.95
2018-02-11T17:05:30.650Z,4.93
2018-02-11T17:07:58.049Z,4.85
2018-02-11T17:10:25.445Z,4.92
2018-02-11T17:12:52.860Z,4.91
2018-02-11T17:15:20.253Z,4.78
2018-02-11T17:17:47.662Z,4.81
2018-02-11T17:20:15.094Z,4.72
2018-02-11T17:22:42.505Z,4.76
2018-02-11T17:25:10.806Z,4.65
2018-02-11T17:27:38.251Z,4.71
2018-02-11T17:30:05.657Z,4.59
2018-02-11T17:32:33.074Z,4.70
2018-02-11T17:35:00.558Z,4.57
2018-02-11T17:37:27.981Z,4.64
2018-02-11T17:39:55.424Z,4.62
2018-02-11T17:42:22.902Z,4.73
2018-02-11T17:44:50.305Z,4.65
2018-02-11T17:47:17.736Z,4.66
2018-02-11T17:49:47.155Z,4.57
2018-02-11T17:52:14.539Z,4.63
2018-02-11T17:54:42.141Z,4.58
2018-02-11T17:57:09.549Z,4.53
2018-02-11T17:59:36.970Z,4.58
2018-02-11T18:02:04.371Z,4.58
2018-02-11T18:04:31.782Z,4.72
2018-02-11T18:06:59.185Z,4.75
2018-02-11T18:09:26.642Z,4.75
2018-02-11T18:11:54.050Z,4.73
2018-02-11T18:14:21.463Z,4.77
2018-02-11T18:16:48.875Z,4.79
2018-02-11T18:19:16.302Z,4.84
2018-02-11T18:21:43.718Z,4.73
2018-02-11T18:24:11.138Z,4.63
2018-02-11T18:26:38.527Z,4.64
2018-02-11T18:29:05.947Z,4.64
2018-02-11T18:31:33.433Z,4.72
2018-02-11T18:34:00.966Z,4.70
2018-02-11T18:36:28.377Z,4.62
2018-02-11T18:38:55.793Z,4.68
2018-02-11T18:41:23.230Z,4.71
2018-02-11T18:43:50.636Z,4.46
2018-02-11T18:46:18.048Z,4.50
2018-02-11T18:48:45.456Z,4.48
2018-02-11T18:51:12.868Z,4.50
2018-02-11T18:53:40.280Z,4.38
2018-02-11T18:56:07.679Z,4.53
2018-02-11T18:58:35.094Z,4.59
2018-02-11T19:01:02.526Z,4.42
2018-02-11T19:03:29.954Z,4.50
2018-02-11T19:05:57.373Z,4.40
2018-02-11T19:08:24.789Z,4.41
2018-02-11T19:10:52.216Z,4.31
2018-02-11T19:13:19.644Z,4.40
2018-02-11T19:15:47.089Z,4.46
2018-02-11T19:18:14.494Z,4.47
2018-02-11T19:20:41.968Z,4.56
2018-02-11T19:23:09.378Z,4.49
2018-02-11T19:25:36.795Z,4.48
2018-02-11T19:28:04.251Z,4.52
2018-02-11T19:30:31.699Z,4.53
2018-02-11T19:32:59.140Z,4.49
2018-02-11T19:35:26.509Z,4.33
2018-02-11T19:37:53.917Z,4.31
2018-02-11T19:40:21.328Z,4.39
2018-02-11T19:42:48.740Z,4.37
2018-02-11T19:45:17.210Z,4.40
2018-02-11T19:47:44.679Z,4.33
2018-02-11T19:50:12.110Z,4.43
2018-02-11T19:52:39.501Z,4.40
2018-02-11T19:55:06.921Z,4.28
2018-02-11T19:57:34.327Z,4.44
2018-02-11T20:00:02.524Z,4.44
2018-02-11T20:02:29.972Z,4.54
2018-02-11T20:04:57.374Z,4.45
2018-02-11T20:07:24.781Z,4.44
2018-02-11T20:09:52.197Z,4.35
2018-02-11T20:12:19.620Z,4.37
2018-02-11T20:14:47.075Z,4.33
2018-02-11T20:17:14.480Z,4.32
2018-02-11T20:19:41.952Z,4.33
2018-02-11T20:22:09.362Z,4.37
2018-02-11T20:24:36.770Z,4.34
2018-02-11T20:27:04.229Z,4.35
2018-02-11T20:29:31.641Z,4.44
2018-02-11T20:31:59.052Z,4.42
2018-02-11T20:34:26.466Z,4.40
2018-02-11T20:36:53.876Z,4.35
2018-02-11T20:39:21.290Z,4.32
2018-02-11T20:41:48.719Z,4.36
2018-02-11T20:44:16.121Z,4.41
2018-02-11T20:46:43.556Z,4.50
2018-02-11T20:49:10.953Z,4.43
2018-02-11T20:51:38.377Z,4.38
2018-02-11T20:54:05.810Z,4.24
2018-02-11T20:56:33.225Z,4.40
2018-02-11T20:59:00.644Z,4.37
2018-02-11T21:01:28.084Z,4.31
2018-02-11T21:03:55.525Z,4.30
2018-02-11T21:06:22.977Z,4.23
2018-02-11T21:08:51.394Z,4.18
2018-02-11T21:11:18.829Z,4.21
2018-02-11T21:13:46.249Z,4.20
2018-02-11T21:16:13.656Z,4.13
2018-02-11T21:18:41.067Z,4.08
2018-02-11T21:21:08.466Z,3.87
2018-02-11T21:23:35.884Z,3.69
2018-02-11T21:26:03.280Z,3.66
2018-02-11T21:28:30.761Z,3.83
2018-02-11T21:30:58.260Z,3.75
2018-02-11T21:33:25.694Z,3.71
2018-02-11T21:35:53.112Z,3.56
2018-02-11T21:38:20.613Z,3.50
2018-02-11T21:40:48.013Z,3.63
2018-02-11T21:43:15.443Z,3.62
2018-02-11T21:45:42.909Z,3.57
2018-02-11T21:48:10.356Z,3.73
2018-02-11T21:50:37.765Z,3.63
2018-02-11T21:53:05.181Z,3.75
2018-02-11T21:55:32.593Z,3.87
2018-02-11T21:58:00.005Z,3.86
2018-02-11T22:02:40.586Z,3.78
2018-02-11T22:05:08.018Z,3.58
2018-02-11T22:07:35.452Z,3.55
2018-02-11T22:10:02.870Z,3.41
2018-02-11T22:12:30.265Z,3.25
2018-02-11T22:14:57.746Z,3.41
2018-02-11T22:17:25.167Z,3.36
2018-02-11T22:19:53.573Z,3.43
2018-02-11T22:22:20.989Z,3.29
2018-02-11T22:24:48.420Z,3.26
2018-02-11T22:27:15.828Z,3.32
2018-02-11T22:29:43.266Z,3.37
2018-02-11T22:32:10.668Z,3.25
2018-02-11T22:34:38.097Z,3.25
2018-02-11T22:37:05.610Z,3.35
2018-02-11T22:39:33.035Z,3.35
2018-02-11T22:42:00.430Z,3.31
2018-02-11T22:44:27.845Z,3.39
2018-02-11T22:46:55.336Z,3.32
2018-02-11T22:49:22.757Z,3.43
2018-02-11T22:51:50.161Z,3.52
2018-02-11T22:54:17.569Z,3.53
2018-02-11T22:56:44.985Z,3.40
2018-02-11T22:59:12.407Z,3.31
2018-02-11T23:01:39.801Z,3.25
2018-02-11T23:04:07.223Z,3.05
2018-02-11T23:06:34.637Z,2.92
2018-02-11T23:09:02.038Z,2.77
2018-02-11T23:11:29.444Z,2.89
2018-02-11T23:13:56.832Z,2.88
2018-02-11T23:16:24.856Z,2.77
2018-02-11T23:18:52.266Z,2.67
2018-02-11T23:21:20.282Z,2.62
2018-02-11T23:23:47.698Z,2.63
2018-02-11T23:26:15.108Z,2.44
2018-02-11T23:28:42.529Z,2.36
2018-02-11T23:31:09.946Z,2.13
2018-02-11T23:33:37.406Z,1.98
2018-02-11T23:36:04.829Z,1.97
2018-02-11T23:38:32.228Z,1.89
2018-02-11T23:40:59.632Z,1.73
2018-02-11T23:43:27.044Z,1.83
2018-02-11T23:45:54.485Z,1.75
2018-02-11T23:48:21.916Z,1.74
2018-02-11T23:50:49.329Z,1.79
2018-02-11T23:53:16.724Z,1.76
2018-02-11T23:55:44.209Z,1.79
2018-02-11T23:58:11.654Z,1.62
